createdAt,value
2018-05-21T00:02:12.325Z,83.10
2018-05-21T00:04:39.419Z,82.22
2018-05-21T00:07:05.511Z,82.16
2018-05-21T00:09:31.531Z,82.33
2018-05-21T00:11:57.541Z,83.30
2018-05-21T00:14:23.571Z,83.09
2018-05-21T00:16:49.678Z,82.79
2018-05-21T00:19:15.784Z,82.81
2018-05-21T00:21:41.845Z,83.19
2018-05-21T00:24:07.885Z,83.13
2018-05-21T00:26:33.912Z,83.23
2018-05-21T00:29:00.085Z,84.22
2018-05-21T00:31:26.113Z,82.61
2018-05-21T00:33:52.943Z,82.84
2018-05-21T00:36:18.998Z,83.30
2018-05-21T00:38:45.018Z,83.02
2018-05-21T00:41:11.051Z,82.44
2018-05-21T00:43:37.146Z,82.00
2018-05-21T00:46:03.172Z,81.98
2018-05-21T00:48:29.161Z,81.31
2018-05-21T00:50:55.224Z,81.00
2018-05-21T00:53:21.241Z,80.38
2018-05-21T00:55:47.234Z,79.87
2018-05-21T00:58:13.321Z,79.82
2018-05-21T01:00:39.357Z,79.11
2018-05-21T01:03:05.462Z,78.98
2018-05-21T01:05:31.504Z,78.68
2018-05-21T01:07:57.558Z,78.07
2018-05-21T01:10:23.600Z,77.61
2018-05-21T01:12:49.710Z,76.90
2018-05-21T01:15:15.709Z,76.49
2018-05-21T01:17:41.714Z,76.45
2018-05-21T01:20:07.821Z,75.65
2018-05-21T01:22:33.828Z,74.00
2018-05-21T01:24:59.879Z,74.10
2018-05-21T01:27:25.894Z,74.08
2018-05-21T01:29:51.951Z,74.01
2018-05-21T01:32:18.081Z,73.08
2018-05-21T01:34:44.172Z,72.30
2018-05-21T01:37:10.237Z,72.10
2018-05-21T01:39:37.074Z,71.08
2018-05-21T01:42:03.097Z,70.79
2018-05-21T01:44:29.149Z,70.73
2018-05-21T01:46:55.174Z,69.22
2018-05-21T01:49:21.269Z,69.58
2018-05-21T01:51:47.290Z,69.22
2018-05-21T01:54:13.312Z,68.76
2018-05-21T01:56:39.427Z,68.39
2018-05-21T01:59:05.487Z,68.55
2018-05-21T02:01:31.648Z,68.44
2018-05-21T02:03:57.665Z,68.84
2018-05-21T02:06:23.691Z,68.79
2018-05-21T02:08:49.785Z,69.10
2018-05-21T02:11:15.819Z,69.04
2018-05-21T02:13:41.878Z,68.45
2018-05-21T02:16:07.897Z,68.70
2018-05-21T02:18:33.909Z,68.62
2018-05-21T02:21:00.005Z,68.01
2018-05-21T02:23:26.046Z,68.22
2018-05-21T02:25:52.125Z,68.42
2018-05-21T02:28:18.154Z,67.85
2018-05-21T02:30:44.250Z,68.50
2018-05-21T02:33:10.330Z,67.93
2018-05-21T02:35:36.352Z,68.37
2018-05-21T02:38:02.444Z,68.22
2018-05-21T02:40:28.631Z,68.58
2018-05-21T02:42:54.648Z,68.34
2018-05-21T02:45:20.657Z,68.30
2018-05-21T02:47:46.689Z,68.35
2018-05-21T02:50:12.863Z,68.38
2018-05-21T02:52:38.974Z,68.30
2018-05-21T02:55:04.990Z,68.50
2018-05-21T02:57:31.033Z,68.55
2018-05-21T02:59:57.107Z,68.40
2018-05-21T03:02:23.151Z,69.02
2018-05-21T03:04:49.406Z,68.85
2018-05-21T03:07:15.405Z,69.01
2018-05-21T03:09:41.435Z,69.16
2018-05-21T03:12:07.494Z,69.36
2018-05-21T03:14:33.549Z,69.34
2018-05-21T03:16:59.673Z,69.57
2018-05-21T03:19:25.796Z,69.22
2018-05-21T03:21:51.827Z,68.93
2018-05-21T03:24:17.861Z,69.26
2018-05-21T03:26:43.929Z,69.86
2018-05-21T03:29:09.993Z,69.43
2018-05-21T03:31:36.043Z,69.66
2018-05-21T03:34:02.144Z,70.20
2018-05-21T03:36:28.214Z,69.97
2018-05-21T03:38:54.393Z,69.87
2018-05-21T03:41:20.478Z,70.21
2018-05-21T03:43:46.497Z,70.12
2018-05-21T03:46:12.708Z,70.36
2018-05-21T03:48:38.780Z,70.10
2018-05-21T03:51:04.832Z,70.29
2018-05-21T03:53:30.910Z,69.80
2018-05-21T03:55:56.966Z,70.11
2018-05-21T03:58:35.194Z,69.72
2018-05-21T04:01:13.487Z,70.80
2018-05-21T04:03:51.813Z,69.88
2018-05-21T04:06:17.935Z,70.34
2018-05-21T04:08:44.106Z,69.60
2018-05-21T04:11:10.166Z,69.88
2018-05-21T04:13:36.201Z,69.44
2018-05-21T04:16:02.252Z,68.94
2018-05-21T04:18:28.342Z,68.83
2018-05-21T04:20:54.397Z,68.87
2018-05-21T04:23:20.448Z,68.61
2018-05-21T04:25:46.595Z,68.41
2018-05-21T04:28:12.799Z,68.18
2018-05-21T04:30:38.828Z,68.51
2018-05-21T04:33:04.925Z,68.36
2018-05-21T04:35:30.982Z,67.78
2018-05-21T04:37:57.019Z,67.64
2018-05-21T04:40:23.073Z,67.69
2018-05-21T04:42:49.101Z,66.84
2018-05-21T04:45:15.156Z,66.94
2018-05-21T04:47:41.351Z,66.69
2018-05-21T04:50:07.414Z,66.62
2018-05-21T04:52:33.457Z,65.95
2018-05-21T04:54:59.493Z,65.35
2018-05-21T04:57:25.562Z,65.30
2018-05-21T04:59:51.699Z,65.59
2018-05-21T05:02:17.763Z,65.00
2018-05-21T05:04:43.754Z,64.23
2018-05-21T05:07:09.822Z,64.48
2018-05-21T05:09:35.846Z,64.21
2018-05-21T05:12:02.451Z,64.42
2018-05-21T05:14:28.528Z,63.70
2018-05-21T05:16:54.668Z,64.58
2018-05-21T05:19:20.704Z,64.72
2018-05-21T05:21:46.776Z,64.32
2018-05-21T05:24:12.836Z,64.24
2018-05-21T05:26:39.307Z,64.23
2018-05-21T05:29:05.348Z,63.59
2018-05-21T05:31:31.790Z,64.13
2018-05-21T05:33:57.809Z,63.07
2018-05-21T05:36:23.882Z,62.91
2018-05-21T05:38:49.965Z,63.45
2018-05-21T05:41:15.981Z,61.84
2018-05-21T05:43:42.009Z,61.29
2018-05-21T05:46:08.058Z,61.23
2018-05-21T05:48:34.085Z,61.22
2018-05-21T05:51:00.101Z,60.55
2018-05-21T05:53:26.237Z,59.38
2018-05-21T05:55:52.294Z,59.01
2018-05-21T05:58:18.303Z,58.86
2018-05-21T06:00:44.342Z,58.25
2018-05-21T06:03:10.470Z,58.34
2018-05-21T06:05:36.586Z,57.93
2018-05-21T06:08:03.532Z,56.29
2018-05-21T06:10:29.542Z,55.66
2018-05-21T06:12:55.633Z,55.17
2018-05-21T06:15:21.664Z,54.69
2018-05-21T06:17:47.717Z,54.39
2018-05-21T06:20:13.753Z,54.69
2018-05-21T06:22:39.809Z,53.95
2018-05-21T06:25:05.944Z,53.50
2018-05-21T06:27:31.971Z,52.13
2018-05-21T06:29:58.024Z,52.35
2018-05-21T06:32:24.037Z,51.69
2018-05-21T06:34:50.134Z,50.47
2018-05-21T06:37:16.154Z,50.25
2018-05-21T06:39:42.183Z,50.21
2018-05-21T06:42:08.271Z,48.42
2018-05-21T06:44:34.306Z,49.49
2018-05-21T06:47:00.359Z,48.47
2018-05-21T06:49:26.421Z,48.44
2018-05-21T06:51:59.725Z,49.09
2018-05-21T06:54:25.772Z,48.10
2018-05-21T06:56:51.822Z,48.96
2018-05-21T06:59:17.872Z,49.80
2018-05-21T07:01:43.943Z,50.01
2018-05-21T07:04:09.964Z,50.68
2018-05-21T07:06:36.016Z,50.46
2018-05-21T07:09:02.160Z,49.27
2018-05-21T07:11:28.177Z,46.83
2018-05-21T07:13:54.189Z,46.84
2018-05-21T07:16:20.590Z,47.73
2018-05-21T07:18:46.642Z,47.70
2018-05-21T07:21:12.698Z,46.31
2018-05-21T07:23:38.724Z,46.11
2018-05-21T07:26:04.795Z,47.61
2018-05-21T07:28:31.417Z,47.30
2018-05-21T07:30:57.415Z,48.69
2018-05-21T07:33:23.491Z,45.45
2018-05-21T07:35:49.566Z,45.59
2018-05-21T07:38:15.587Z,45.54
2018-05-21T07:40:41.627Z,45.47
2018-05-21T07:43:07.613Z,47.65
2018-05-21T07:45:33.649Z,48.00
2018-05-21T07:47:59.759Z,47.33
2018-05-21T07:50:25.783Z,47.13
2018-05-21T07:52:51.802Z,47.36
2018-05-21T07:55:17.846Z,47.17
2018-05-21T07:57:43.903Z,46.20
2018-05-21T08:00:10.015Z,45.45
2018-05-21T08:02:36.056Z,43.98
2018-05-21T08:05:02.147Z,44.39
2018-05-21T08:07:28.207Z,44.89
2018-05-21T08:09:54.259Z,46.50
2018-05-21T08:12:20.492Z,46.83
2018-05-21T08:14:46.779Z,46.42
2018-05-21T08:17:12.977Z,45.74
2018-05-21T08:19:39.037Z,45.17
2018-05-21T08:22:05.055Z,44.82
2018-05-21T08:24:31.095Z,45.09
2018-05-21T08:26:57.125Z,44.55
2018-05-21T08:29:23.183Z,43.74
2018-05-21T08:31:49.249Z,43.77
2018-05-21T08:34:15.307Z,42.34
2018-05-21T08:36:41.343Z,41.71
2018-05-21T08:39:07.445Z,40.63
2018-05-21T08:41:33.521Z,43.67
2018-05-21T08:43:59.533Z,43.71
2018-05-21T08:46:25.571Z,44.28
2018-05-21T08:48:51.669Z,45.86
2018-05-21T08:51:17.703Z,43.59
2018-05-21T08:53:43.728Z,44.47
2018-05-21T08:56:09.749Z,42.99
2018-05-21T08:58:35.867Z,42.74
2018-05-21T09:01:01.919Z,42.55
2018-05-21T09:03:27.974Z,42.45
2018-05-21T09:05:54.083Z,44.29
2018-05-21T09:08:20.124Z,42.22
2018-05-21T09:10:46.227Z,43.32
2018-05-21T09:13:12.582Z,42.24
2018-05-21T09:15:38.693Z,41.92
2018-05-21T09:18:04.745Z,41.48
2018-05-21T09:20:30.780Z,41.38
2018-05-21T09:22:57.492Z,41.59
2018-05-21T09:25:23.569Z,40.03
2018-05-21T09:27:49.581Z,41.17
2018-05-21T09:30:15.648Z,41.27
2018-05-21T09:32:41.668Z,40.82
2018-05-21T09:35:07.690Z,39.19
2018-05-21T09:37:33.780Z,38.85
2018-05-21T09:39:59.911Z,40.35
2018-05-21T09:42:26.079Z,39.69
2018-05-21T09:44:52.189Z,40.46
2018-05-21T09:47:18.271Z,40.97
2018-05-21T09:49:44.345Z,38.70
2018-05-21T09:52:10.387Z,39.24
2018-05-21T09:54:36.565Z,36.85
2018-05-21T09:57:02.782Z,38.03
2018-05-21T09:59:28.844Z,35.99
2018-05-21T10:01:54.877Z,33.23
2018-05-21T10:04:21.470Z,29.71
2018-05-21T10:06:47.549Z,27.58
2018-05-21T10:09:13.609Z,29.29
2018-05-21T10:11:39.614Z,28.64
2018-05-21T10:16:38.550Z,22.93
2018-05-21T10:19:04.709Z,21.92
2018-05-21T10:21:30.895Z,25.47
2018-05-21T10:23:56.948Z,27.76
2018-05-21T10:26:23.005Z,29.19
2018-05-21T10:28:49.033Z,28.44
2018-05-21T10:31:15.178Z,27.17
2018-05-21T10:33:41.206Z,27.24
2018-05-21T10:36:07.209Z,26.90
2018-05-21T10:38:33.246Z,26.16
2018-05-21T10:40:59.303Z,25.68
2018-05-21T10:43:25.379Z,21.37
2018-05-21T10:45:51.390Z,19.69
2018-05-21T10:48:17.381Z,19.29
2018-05-21T10:50:43.438Z,19.53
2018-05-21T10:53:09.471Z,17.94
2018-05-21T10:55:35.516Z,18.03
2018-05-21T10:58:01.562Z,18.21
2018-05-21T11:00:27.596Z,16.58
2018-05-21T11:02:53.623Z,17.60
2018-05-21T11:05:19.758Z,17.20
2018-05-21T11:07:46.473Z,18.35
2018-05-21T11:10:12.666Z,17.22
2018-05-21T11:12:38.715Z,16.58
2018-05-21T11:15:04.777Z,16.54
2018-05-21T11:17:30.884Z,16.92
2018-05-21T11:19:56.963Z,16.86
2018-05-21T11:22:23.018Z,16.91
2018-05-21T11:24:49.102Z,17.33
2018-05-21T11:27:15.232Z,16.98
2018-05-21T11:29:41.414Z,17.55
2018-05-21T11:32:07.486Z,18.06
2018-05-21T11:34:33.529Z,16.72
2018-05-21T11:36:59.697Z,16.29
2018-05-21T11:39:25.736Z,16.74
2018-05-21T11:41:51.838Z,17.19
2018-05-21T11:44:17.862Z,17.32
2018-05-21T11:46:44.845Z,16.34
2018-05-21T11:49:10.917Z,15.79
2018-05-21T11:51:37.215Z,16.05
2018-05-21T11:54:03.350Z,17.25
2018-05-21T11:56:29.418Z,16.82
2018-05-21T11:58:55.492Z,16.12
2018-05-21T12:01:21.545Z,18.18
2018-05-21T12:03:47.615Z,17.15
2018-05-21T12:06:13.682Z,18.88
2018-05-21T12:08:39.775Z,18.72
2018-05-21T12:11:05.916Z,17.92
2018-05-21T12:13:32.600Z,18.10
2018-05-21T12:15:58.680Z,17.22
2018-05-21T12:18:24.709Z,16.09
2018-05-21T12:20:50.816Z,15.73
2018-05-21T12:23:17.054Z,15.11
2018-05-21T12:25:43.637Z,15.08
2018-05-21T12:28:09.701Z,14.79
2018-05-21T12:30:35.723Z,15.51
2018-05-21T12:33:01.777Z,15.15
2018-05-21T12:35:27.905Z,15.87
2018-05-21T12:37:54.023Z,14.86
2018-05-21T12:40:20.070Z,17.55
2018-05-21T12:42:46.205Z,15.11
2018-05-21T12:45:12.394Z,16.07
2018-05-21T12:47:38.588Z,15.00
2018-05-21T12:50:04.671Z,15.08
2018-05-21T12:52:30.951Z,14.85
2018-05-21T12:54:57.006Z,14.59
2018-05-21T12:57:23.193Z,14.60
2018-05-21T12:59:49.280Z,14.60
2018-05-21T13:02:15.377Z,15.60
2018-05-21T13:04:41.477Z,15.59
2018-05-21T13:07:07.573Z,17.16
2018-05-21T13:09:33.641Z,15.81
2018-05-21T13:11:59.817Z,15.84
2018-05-21T13:14:25.879Z,15.88
2018-05-21T13:16:51.975Z,15.67
2018-05-21T13:19:18.038Z,16.34
2018-05-21T13:21:44.124Z,16.56
2018-05-21T13:24:10.398Z,17.53
2018-05-21T13:26:36.450Z,17.40
2018-05-21T13:29:02.511Z,19.24
2018-05-21T13:31:28.544Z,18.75
2018-05-21T13:33:54.762Z,19.30
2018-05-21T13:36:20.888Z,19.19
2018-05-21T13:38:46.999Z,20.66
2018-05-21T13:41:13.081Z,22.56
2018-05-21T13:43:39.163Z,19.76
2018-05-21T13:46:05.301Z,21.52
2018-05-21T13:48:31.314Z,20.69
2018-05-21T13:50:57.376Z,21.66
2018-05-21T13:53:23.420Z,22.20
2018-05-21T13:55:49.528Z,22.52
2018-05-21T13:58:15.604Z,21.90
2018-05-21T14:00:41.738Z,23.45
2018-05-21T14:03:07.816Z,21.60
2018-05-21T14:05:33.942Z,21.87
2018-05-21T14:08:00.018Z,23.02
2018-05-21T14:10:26.032Z,23.29
2018-05-21T14:12:52.114Z,22.02
2018-05-21T14:15:18.155Z,22.51
2018-05-21T14:17:44.244Z,22.14
2018-05-21T14:20:10.357Z,23.33
2018-05-21T14:22:36.513Z,22.77
2018-05-21T14:25:02.771Z,22.94
2018-05-21T14:27:28.837Z,23.35
2018-05-21T14:29:54.917Z,23.76
2018-05-21T14:32:20.986Z,23.88
2018-05-21T14:34:47.255Z,23.88
2018-05-21T14:37:13.338Z,25.13
2018-05-21T14:39:39.429Z,24.36
2018-05-21T14:42:05.523Z,24.77
2018-05-21T14:44:31.621Z,24.25
2018-05-21T14:46:57.649Z,24.88
2018-05-21T14:49:23.721Z,25.78
2018-05-21T14:51:49.769Z,25.21
2018-05-21T14:54:15.850Z,25.16
2018-05-21T14:56:41.902Z,26.36
2018-05-21T14:59:07.911Z,26.55
2018-05-21T15:01:34.025Z,26.68
2018-05-21T15:04:00.090Z,27.13
2018-05-21T15:06:26.147Z,26.76
2018-05-21T15:08:52.209Z,26.46
2018-05-21T15:11:18.300Z,26.82
2018-05-21T15:13:45.245Z,26.71
2018-05-21T15:16:11.357Z,27.95
2018-05-21T15:18:37.358Z,26.86
2018-05-21T15:21:03.418Z,26.11
2018-05-21T15:23:29.441Z,26.69
2018-05-21T15:25:55.555Z,27.31
2018-05-21T15:28:21.631Z,27.61
2018-05-21T15:30:47.667Z,26.67
2018-05-21T15:33:13.739Z,28.15
2018-05-21T15:35:39.784Z,28.25
2018-05-21T15:38:05.849Z,28.16
2018-05-21T15:40:31.902Z,28.33
2018-05-21T15:42:58.121Z,28.13
2018-05-21T15:45:24.143Z,28.17
2018-05-21T15:47:50.212Z,28.54
2018-05-21T15:50:16.266Z,28.91
2018-05-21T15:52:42.442Z,28.64
2018-05-21T15:55:08.663Z,28.81
2018-05-21T15:57:34.760Z,28.54
2018-05-21T16:00:00.704Z,28.76
2018-05-21T16:02:26.994Z,29.49
2018-05-21T16:04:53.217Z,29.53
2018-05-21T16:07:19.309Z,29.41
2018-05-21T16:09:45.325Z,28.90
2018-05-21T16:12:11.380Z,29.87
2018-05-21T16:14:37.458Z,29.57
2018-05-21T16:17:03.484Z,30.52
2018-05-21T16:19:29.529Z,30.05
2018-05-21T16:21:55.570Z,29.81
2018-05-21T16:24:21.743Z,31.23
2018-05-21T16:26:47.677Z,30.32
2018-05-21T16:29:13.770Z,31.47
2018-05-21T16:31:39.850Z,30.31
2018-05-21T16:34:05.848Z,31.13
2018-05-21T16:36:31.899Z,30.91
2018-05-21T16:38:58.009Z,31.24
2018-05-21T16:41:24.049Z,31.92
2018-05-21T16:43:50.149Z,31.71
2018-05-21T16:46:16.273Z,32.34
2018-05-21T16:48:42.372Z,32.04
2018-05-21T16:51:08.582Z,32.18
2018-05-21T16:53:34.593Z,32.06
2018-05-21T16:56:00.604Z,31.57
2018-05-21T16:58:26.795Z,31.87
2018-05-21T17:00:52.855Z,32.75
2018-05-21T17:03:18.884Z,32.59
2018-05-21T17:05:44.880Z,33.49
2018-05-21T17:08:11.031Z,33.23
2018-05-21T17:10:37.081Z,34.15
2018-05-21T17:13:03.155Z,34.84
2018-05-21T17:15:29.166Z,34.08
2018-05-21T17:17:55.318Z,34.43
2018-05-21T17:20:21.460Z,35.29
2018-05-21T17:22:47.431Z,35.08
2018-05-21T17:25:13.477Z,35.28
2018-05-21T17:27:39.526Z,35.88
2018-05-21T17:30:05.597Z,38.42
2018-05-21T17:32:31.695Z,35.88
2018-05-21T17:34:57.884Z,36.72
2018-05-21T17:37:23.926Z,36.91
2018-05-21T17:39:49.971Z,38.08
2018-05-21T17:42:16.165Z,38.48
2018-05-21T17:44:42.312Z,37.33
2018-05-21T17:47:08.559Z,39.99
2018-05-21T17:49:34.736Z,38.47
2018-05-21T17:52:00.896Z,37.96
2018-05-21T17:54:26.904Z,39.30
2018-05-21T17:56:53.074Z,36.50
2018-05-21T17:59:19.219Z,38.34
2018-05-21T18:01:45.316Z,39.16
2018-05-21T18:04:11.647Z,41.13
2018-05-21T18:06:37.657Z,41.59
2018-05-21T18:09:03.785Z,41.40
2018-05-21T18:11:29.833Z,41.30
2018-05-21T18:13:55.932Z,38.79
2018-05-21T18:16:22.028Z,40.47
2018-05-21T18:18:48.050Z,41.76
2018-05-21T18:21:14.096Z,43.03
2018-05-21T18:23:40.153Z,41.41
2018-05-21T18:26:06.250Z,41.79
2018-05-21T18:28:32.302Z,42.91
2018-05-21T18:30:58.359Z,41.28
2018-05-21T18:33:24.504Z,41.92
2018-05-21T18:35:50.739Z,42.22
2018-05-21T18:38:16.833Z,43.32
2018-05-21T18:40:42.902Z,43.41
2018-05-21T18:43:08.972Z,41.21
2018-05-21T18:45:35.072Z,41.83
2018-05-21T18:48:01.205Z,43.57
2018-05-21T18:50:27.221Z,42.86
2018-05-21T18:52:53.247Z,42.63
2018-05-21T18:55:19.310Z,41.27
2018-05-21T18:57:45.346Z,41.85
2018-05-21T19:00:11.510Z,42.95
2018-05-21T19:02:37.459Z,42.62
2018-05-21T19:05:03.518Z,42.91
2018-05-21T19:07:29.536Z,41.76
2018-05-21T19:09:55.565Z,42.99
2018-05-21T19:12:21.649Z,43.29
2018-05-21T19:14:47.701Z,44.47
2018-05-21T19:17:13.750Z,43.25
2018-05-21T19:19:39.774Z,44.37
2018-05-21T19:22:05.798Z,43.10
2018-05-21T19:24:31.812Z,44.61
2018-05-21T19:26:57.855Z,44.69
2018-05-21T19:29:23.919Z,43.79
2018-05-21T19:31:50.027Z,43.94
2018-05-21T19:34:16.103Z,44.32
2018-05-21T19:36:42.175Z,44.19
2018-05-21T19:39:08.281Z,42.66
2018-05-21T19:41:34.327Z,43.13
2018-05-21T19:44:00.376Z,43.40
2018-05-21T19:46:26.465Z,45.20
2018-05-21T19:48:52.736Z,45.96
2018-05-21T19:51:18.840Z,47.85
2018-05-21T19:53:44.957Z,46.16
2018-05-21T19:56:11.035Z,45.96
2018-05-21T19:58:37.131Z,47.78
2018-05-21T20:01:03.548Z,46.90
2018-05-21T20:03:29.591Z,47.13
2018-05-21T20:05:55.704Z,47.14
2018-05-21T20:08:21.753Z,46.11
2018-05-21T20:10:47.835Z,46.78
2018-05-21T20:13:13.953Z,46.95
2018-05-21T20:15:40.046Z,46.69
2018-05-21T20:18:06.097Z,46.13
2018-05-21T20:20:38.270Z,47.01
2018-05-21T20:23:04.299Z,46.81
2018-05-21T20:25:30.318Z,47.18
2018-05-21T20:27:56.382Z,46.47
2018-05-21T20:30:22.443Z,46.80
2018-05-21T20:32:48.548Z,46.36
2018-05-21T20:35:14.602Z,46.54
2018-05-21T20:37:40.716Z,47.33
2018-05-21T20:40:06.917Z,46.56
2018-05-21T20:42:33.614Z,47.25
2018-05-21T20:44:59.630Z,46.94
2018-05-21T20:47:25.670Z,47.81
2018-05-21T20:49:51.712Z,47.18
2018-05-21T20:52:17.760Z,47.31
2018-05-21T20:54:43.810Z,48.23
2018-05-21T20:57:09.851Z,47.38
2018-05-21T20:59:35.874Z,47.84
2018-05-21T21:02:01.898Z,47.64
2018-05-21T21:04:27.904Z,48.99
2018-05-21T21:06:53.969Z,48.40
2018-05-21T21:09:20.275Z,48.44
2018-05-21T21:11:46.315Z,49.44
2018-05-21T21:14:12.586Z,48.35
2018-05-21T21:16:38.615Z,48.81
2018-05-21T21:19:05.198Z,48.23
2018-05-21T21:21:31.243Z,47.93
2018-05-21T21:23:58.222Z,47.38
2018-05-21T21:26:24.430Z,47.17
2018-05-21T21:28:50.453Z,47.26
2018-05-21T21:31:16.502Z,47.72
2018-05-21T21:33:42.691Z,47.96
2018-05-21T21:36:09.320Z,49.50
2018-05-21T21:38:35.327Z,47.85
2018-05-21T21:41:01.347Z,48.02
2018-05-21T21:43:27.412Z,47.89
2018-05-21T21:45:53.438Z,48.52
2018-05-21T21:48:19.449Z,48.79
2018-05-21T21:50:45.466Z,49.08
2018-05-21T21:53:11.516Z,49.63
2018-05-21T21:55:37.546Z,49.81
2018-05-21T21:58:03.676Z,49.08
2018-05-21T22:00:29.745Z,50.63
2018-05-21T22:02:56.005Z,50.39
2018-05-21T22:05:22.123Z,49.42
2018-05-21T22:07:48.270Z,48.91
2018-05-21T22:10:14.295Z,50.67
2018-05-21T22:12:40.326Z,50.76
2018-05-21T22:15:06.494Z,51.15
2018-05-21T22:17:32.670Z,50.66
2018-05-21T22:19:58.721Z,51.04
2018-05-21T22:22:24.880Z,52.03
2018-05-21T22:24:50.926Z,50.56
2018-05-21T22:27:17.079Z,50.42
2018-05-21T22:29:43.241Z,50.60
2018-05-21T22:32:09.293Z,51.48
2018-05-21T22:34:35.362Z,51.45
2018-05-21T22:37:01.427Z,51.11
2018-05-21T22:39:27.865Z,51.41
2018-05-21T22:41:53.892Z,51.30
2018-05-21T22:44:20.119Z,51.14
2018-05-21T22:46:46.287Z,52.01
2018-05-21T22:49:12.342Z,51.57
2018-05-21T22:51:38.365Z,52.63
2018-05-21T22:54:04.401Z,52.76
2018-05-21T22:56:31.411Z,52.72
2018-05-21T22:58:57.809Z,52.87
2018-05-21T23:01:23.886Z,54.97
2018-05-21T23:03:49.926Z,53.61
2018-05-21T23:06:15.978Z,55.08
2018-05-21T23:08:42.001Z,53.43
2018-05-21T23:11:08.039Z,53.68
2018-05-21T23:13:34.693Z,53.79
2018-05-21T23:16:00.834Z,54.61
2018-05-21T23:18:26.888Z,55.06
2018-05-21T23:20:52.932Z,54.12
2018-05-21T23:23:19.021Z,54.57
2018-05-21T23:25:45.843Z,54.13
2018-05-21T23:28:11.859Z,53.72
2018-05-21T23:30:37.882Z,54.65
2018-05-21T23:33:03.964Z,53.97
2018-05-21T23:35:29.976Z,54.11
2018-05-21T23:37:56.024Z,54.37
2018-05-21T23:40:22.077Z,54.49
2018-05-21T23:42:48.135Z,55.72
2018-05-21T23:45:14.444Z,55.04
2018-05-21T23:47:40.486Z,55.01
2018-05-21T23:50:06.493Z,54.67
2018-05-21T23:52:32.527Z,54.92
2018-05-21T23:54:58.840Z,55.21
2018-05-21T23:57:24.929Z,54.61
2018-05-21T23:59:51.761Z,54.66
